Time;durP1;ratioP1;P1;durP2;ratioP2;P2;SDS_P1;SDS_P2;PMS_P1;PMS_P2;Temp;Humidity;BMP_temperature;BMP_pressure;BME280_temperature;BME280_humidity;BME280_pressure;Samples;Min_cycle;Max_cycle;Signal;HPM_P1;HPM_P2
2023/09/06 00:00:43;;;;;;;;;29.33;21.33;;;;;28.66;44.47;101220.69;4975287;28;46163;-67
2023/09/06 00:03:10;;;;;;;;;25.33;25.33;;;;;28.65;44.04;101210.00;4963584;28;45497;-66
2023/09/06 00:05:36;;;;;;;;;28.00;26.00;;;;;28.68;44.43;101216.06;4976016;27;45384;-66
2023/09/06 00:08:03;;;;;;;;;27.33;26.00;;;;;28.66;44.24;101212.59;4974985;27;45326;-66
2023/09/06 00:13:19;;;;;;;;;26.00;25.00;;;;;28.54;44.52;101202.63;4985002;27;45415;-67
2023/09/06 00:15:44;;;;;;;;;26.00;23.33;;;;;28.56;44.40;101211.47;4976389;27;45423;-66
2023/09/06 00:18:10;;;;;;;;;27.00;20.33;;;;;28.57;44.79;101212.34;4975288;28;45541;-67
2023/09/06 00:20:38;;;;;;;;;27.33;23.00;;;;;28.52;44.44;101196.47;4975507;28;45420;-66
2023/09/06 00:23:13;;;;;;;;;22.33;20.33;;;;;28.39;44.33;101184.75;4974370;28;45449;-68
2023/09/06 00:25:39;;;;;;;;;25.00;20.33;;;;;28.45;44.80;101193.31;4961918;27;46909;-67
2023/09/06 00:28:06;;;;;;;;;23.67;21.67;;;;;28.46;44.83;101204.97;4974692;28;45423;-67
2023/09/06 00:30:33;;;;;;;;;21.33;21.00;;;;;28.38;44.94;101193.78;4974127;28;46131;-65
2023/09/06 00:32:59;;;;;;;;;32.33;29.00;;;;;28.38;44.95;101204.56;4973803;27;45347;-65
2023/09/06 00:35:26;;;;;;;;;29.33;27.00;;;;;28.29;45.48;101192.59;4973562;27;45714;-67
2023/09/06 00:37:53;;;;;;;;;26.00;23.67;;;;;28.31;45.47;101206.81;4974365;27;45586;-65
2023/09/06 00:40:22;;;;;;;;;27.33;24.00;;;;;28.31;45.61;101207.69;4964092;28;46333;-66
2023/09/06 00:42:52;;;;;;;;;30.67;27.00;;;;;28.17;45.29;101179.94;4993675;27;45473;-67
2023/09/06 00:45:22;;;;;;;;;23.33;22.67;;;;;28.21;46.02;101189.50;4993779;27;45464;-67
2023/09/06 00:47:51;;;;;;;;;27.67;24.67;;;;;28.17;45.32;101194.25;4993678;27;45775;-67
2023/09/06 00:50:18;;;;;;;;;29.00;25.00;;;;;28.15;45.99;101189.94;4991537;27;45397;-67
2023/09/06 00:52:44;;;;;;;;;26.67;25.00;;;;;28.22;45.64;101210.13;4975908;27;45562;-67
2023/09/06 00:55:12;;;;;;;;;24.67;23.67;;;;;28.15;45.76;101198.00;4977902;27;45473;-66
2023/09/06 00:57:40;;;;;;;;;26.33;24.33;;;;;28.20;45.74;101203.97;4987752;28;45396;-67
2023/09/06 01:00:12;;;;;;;;;22.33;20.33;;;;;28.19;45.85;101212.97;4981265;27;46114;-66
2023/09/06 01:02:38;;;;;;;;;25.00;24.00;;;;;28.09;45.60;101196.56;4992773;27;45416;-64
2023/09/06 01:05:05;;;;;;;;;23.00;22.33;;;;;28.06;46.23;101194.94;4993441;27;45331;-66
2023/09/06 01:07:36;;;;;;;;;24.67;21.00;;;;;28.16;46.17;101207.81;4972838;28;45395;-64
2023/09/06 01:10:05;;;;;;;;;23.33;23.33;;;;;28.15;45.89;101208.78;4984372;27;45549;-66
2023/09/06 01:12:31;;;;;;;;;29.33;24.00;;;;;28.11;45.97;101211.66;4993093;27;45476;-66
2023/09/06 01:14:56;;;;;;;;;29.00;24.33;;;;;28.10;46.24;101209.94;4993663;27;45347;-65
2023/09/06 01:17:26;;;;;;;;;25.00;23.33;;;;;28.10;46.14;101207.25;4972743;27;45508;-66
2023/09/06 01:19:57;;;;;;;;;23.67;21.67;;;;;27.99;46.15;101188.22;4993563;27;45420;-67
2023/09/06 01:22:31;;;;;;;;;26.00;23.00;;;;;28.06;46.36;101202.16;4976694;28;45481;-67
2023/09/06 01:24:57;;;;;;;;;26.00;24.00;;;;;28.02;46.42;101197.91;4988632;27;45334;-67
2023/09/06 01:27:23;;;;;;;;;16.33;15.00;;;;;27.99;46.29;101193.59;4986017;27;45437;-67
2023/09/06 01:29:49;;;;;;;;;21.33;20.00;;;;;27.91;46.07;101202.16;4993053;27;46542;-66
2023/09/06 01:32:15;;;;;;;;;16.75;16.75;;;;;27.86;45.97;101201.59;4994340;27;45645;-67
2023/09/06 01:34:40;;;;;;;;;17.25;17.25;;;;;27.80;46.21;101185.78;4994658;27;45517;-67
2023/09/06 01:37:06;;;;;;;;;16.75;14.75;;;;;27.84;45.92;101203.50;4997769;27;45269;-66
2023/09/06 01:39:31;;;;;;;;;16.33;15.00;;;;;27.86;46.05;101198.03;4997252;27;47349;-66
2023/09/06 01:41:57;;;;;;;;;14.50;14.50;;;;;27.87;45.71;101205.16;4997264;27;45509;-66
2023/09/06 01:44:22;;;;;;;;;16.25;15.50;;;;;27.86;46.05;101201.59;4997694;27;45349;-67
2023/09/06 01:46:48;;;;;;;;;16.00;15.00;;;;;27.85;46.34;101207.91;4995076;27;45504;-66
2023/09/06 01:49:13;;;;;;;;;18.50;15.75;;;;;27.77;46.48;101207.53;4995958;27;45465;-66
2023/09/06 01:51:39;;;;;;;;;17.75;12.75;;;;;27.75;46.42;101206.75;4995694;27;45440;-66
2023/09/06 01:54:05;;;;;;;;;16.25;15.00;;;;;27.74;46.17;101207.72;4996121;27;45446;-67
2023/09/06 01:56:30;;;;;;;;;14.75;14.00;;;;;27.74;46.23;101206.84;4997337;27;45574;-67
2023/09/06 01:58:56;;;;;;;;;16.00;15.50;;;;;27.72;46.30;101209.66;4992082;27;45478;-66
2023/09/06 02:01:22;;;;;;;;;12.75;12.75;;;;;27.69;46.42;101199.03;4971055;27;45501;-67
2023/09/06 02:03:48;;;;;;;;;15.50;14.00;;;;;27.68;46.34;101200.88;4996992;27;45803;-66
2023/09/06 02:06:14;;;;;;;;;13.00;13.00;;;;;27.63;46.46;101197.63;4996726;27;45422;-67
2023/09/06 02:08:42;;;;;;;;;13.75;13.00;;;;;27.55;46.23;101191.88;4995318;27;45471;-66
2023/09/06 02:11:08;;;;;;;;;14.00;11.25;;;;;27.66;46.66;101210.88;4995492;27;45521;-67
2023/09/06 02:13:33;;;;;;;;;15.25;13.50;;;;;27.65;46.39;101211.00;4978388;28;45732;-66
2023/09/06 02:16:02;;;;;;;;;12.25;12.00;;;;;27.49;46.68;101201.16;4997067;27;45457;-69
2023/09/06 02:18:28;;;;;;;;;16.75;13.25;;;;;27.46;47.14;101212.13;4974956;28;47813;-66
2023/09/06 02:20:56;;;;;;;;;17.25;12.75;;;;;27.31;47.83;101217.56;4993331;27;45477;-67
2023/09/06 02:23:22;;;;;;;;;16.00;14.75;;;;;27.18;48.07;101209.34;4995567;27;45461;-67
2023/09/06 02:25:48;;;;;;;;;14.75;14.00;;;;;27.13;48.15;101215.00;4997210;27;45384;-66
2023/09/06 02:28:17;;;;;;;;;18.00;15.00;;;;;27.13;47.91;101217.69;4995685;27;45324;-67
2023/09/06 02:30:43;;;;;;;;;15.00;15.00;;;;;27.13;48.36;101217.69;4995496;27;45403;-65
2023/09/06 02:33:11;;;;;;;;;15.00;14.25;;;;;27.05;48.32;101207.41;4995361;27;45420;-66
2023/09/06 02:35:40;;;;;;;;;16.50;13.50;;;;;27.10;48.26;101212.50;4995638;27;45420;-66
2023/09/06 02:38:09;;;;;;;;;12.75;12.75;;;;;27.09;48.60;101202.69;4994941;27;46299;-67
2023/09/06 02:40:35;;;;;;;;;13.75;13.75;;;;;27.13;48.42;101208.75;4995734;27;45364;-68
2023/09/06 02:43:02;;;;;;;;;13.75;13.75;;;;;27.11;48.32;101194.53;4996477;27;45309;-66
2023/09/06 02:45:36;;;;;;;;;13.25;10.75;;;;;27.07;48.39;101189.34;4995711;27;45413;-66
2023/09/06 02:48:06;;;;;;;;;13.25;12.00;;;;;27.02;48.49;101179.81;4993953;27;45718;-67
2023/09/06 02:50:34;;;;;;;;;12.00;11.25;;;;;27.15;48.37;101207.72;4996277;27;45366;-66
2023/09/06 02:53:03;;;;;;;;;12.50;12.25;;;;;27.10;48.65;101195.47;4995395;27;45388;-67
2023/09/06 02:55:35;;;;;;;;;13.50;12.50;;;;;27.10;48.38;101200.84;4977525;28;45583;-67
2023/09/06 02:58:01;;;;;;;;;14.50;12.00;;;;;27.11;48.89;101205.28;4995331;27;45614;-66
2023/09/06 03:00:29;;;;;;;;;12.50;10.25;;;;;27.12;48.59;101207.00;4975534;28;45370;-66
2023/09/06 03:03:05;;;;;;;;;14.00;11.25;;;;;27.13;48.99;101206.06;4990721;27;45358;-66
2023/09/06 03:05:41;;;;;;;;;15.50;12.00;;;;;27.08;48.91;101209.91;4995802;27;45431;-67
2023/09/06 03:08:07;;;;;;;;;13.25;11.50;;;;;27.10;48.91;101214.31;4996137;27;45362;-66
2023/09/06 03:10:33;;;;;;;;;17.00;15.00;;;;;27.08;49.08;101209.91;4995680;27;45430;-65
2023/09/06 03:13:01;;;;;;;;;13.00;13.00;;;;;27.10;49.14;101204.44;4994904;27;45437;-67
2023/09/06 03:15:28;;;;;;;;;14.75;13.00;;;;;27.05;49.52;101207.41;4995385;27;45379;-67
2023/09/06 03:17:59;;;;;;;;;13.00;12.75;;;;;27.04;49.25;101208.34;4994669;27;46567;-67
2023/09/06 03:20:33;;;;;;;;;16.25;13.50;;;;;27.04;49.24;101205.66;4994960;27;45558;-66
2023/09/06 03:23:17;;;;;;;;;14.00;12.00;;;;;27.05;49.35;101199.34;4995111;27;45337;-67
2023/09/06 03:25:54;;;;;;;;;14.50;12.75;;;;;26.97;49.22;101206.97;4996354;27;45687;-67
2023/09/06 03:28:21;;;;;;;;;12.25;10.00;;;;;26.99;49.43;101206.88;4978254;28;46498;-67
2023/09/06 03:30:48;;;;;;;;;15.00;12.75;;;;;27.00;49.35;101196.06;4994515;27;45478;-66
2023/09/06 03:33:14;;;;;;;;;15.25;13.00;;;;;26.97;49.62;101193.53;4977403;28;45341;-68
2023/09/06 03:35:41;;;;;;;;;14.25;14.25;;;;;26.99;49.60;101191.63;5068908;27;45476;-64
2023/09/06 03:38:10;;;;;;;;;14.75;11.50;;;;;27.05;49.76;101201.13;4978294;28;45508;-67
2023/09/06 03:40:35;;;;;;;;;17.00;14.25;;;;;27.03;49.30;101193.19;4977445;27;45508;-66
2023/09/06 03:43:19;;;;;;;;;15.25;14.75;;;;;27.09;48.97;101202.69;4987349;27;45251;-66
2023/09/06 03:45:53;;;;;;;;;17.75;15.25;;;;;27.00;49.75;101201.44;4973911;27;45295;-66
2023/09/06 03:48:22;;;;;;;;;16.33;15.33;;;;;26.92;49.50;101205.53;4995928;27;46238;-66
2023/09/06 03:50:51;;;;;;;;;11.00;11.00;;;;;26.86;49.75;101204.94;4995737;27;45641;-68
2023/09/06 03:53:17;;;;;;;;;14.00;11.50;;;;;26.89;49.84;101205.72;4994596;27;45532;-66
2023/09/06 03:55:43;;;;;;;;;13.50;13.50;;;;;26.84;49.84;101206.84;4994569;27;45482;-65
2023/09/06 03:58:10;;;;;;;;;15.50;13.25;;;;;26.88;50.03;101210.19;4994114;27;45916;-65
2023/09/06 04:00:39;;;;;;;;;14.50;11.25;;;;;26.82;49.62;101194.47;4980701;27;45579;-69
2023/09/06 04:03:07;;;;;;;;;15.25;14.50;;;;;26.86;49.95;101204.94;4994878;27;45447;-68
2023/09/06 04:05:33;;;;;;;;;14.00;13.50;;;;;26.81;50.21;101216.91;5047525;27;45540;-65
2023/09/06 04:08:03;;;;;;;;;13.50;12.00;;;;;26.79;50.04;101216.13;4994170;27;45406;-65
2023/09/06 04:10:40;;;;;;;;;18.75;13.50;;;;;26.81;50.09;101219.56;4976584;27;45403;-65
2023/09/06 04:13:08;;;;;;;;;13.75;12.00;;;;;26.81;49.95;101227.63;4995236;27;46100;-66
2023/09/06 04:15:35;;;;;;;;;13.50;12.25;;;;;26.70;50.24;101216.69;4994538;27;45524;-64
2023/09/06 04:18:02;;;;;;;;;14.75;13.25;;;;;26.70;50.32;101224.75;4994015;27;45410;-64
2023/09/06 04:20:36;;;;;;;;;14.00;13.00;;;;;26.68;50.61;101218.59;4993060;27;45520;-63
2023/09/06 04:23:06;;;;;;;;;12.50;12.50;;;;;26.67;50.76;101216.84;4974666;27;45791;-66
2023/09/06 04:25:41;;;;;;;;;17.25;12.00;;;;;26.70;50.30;101227.44;4979675;28;45379;-64
2023/09/06 04:28:10;;;;;;;;;15.00;15.00;;;;;26.69;50.64;101220.31;4974688;27;46073;-65
2023/09/06 04:30:37;;;;;;;;;16.75;13.50;;;;;26.69;50.44;101222.97;4974438;28;45380;-65
2023/09/06 04:33:05;;;;;;;;;11.25;10.50;;;;;26.59;50.42;101204.72;4974507;27;45489;-64
2023/09/06 04:35:39;;;;;;;;;12.25;11.00;;;;;26.62;50.24;101214.41;4960587;28;45359;-63
2023/09/06 04:38:05;;;;;;;;;10.00;9.50;;;;;26.56;50.83;101215.63;4974079;27;45430;-64
2023/09/06 04:40:30;;;;;;;;;10.00;10.00;;;;;26.55;50.82;101215.72;4974069;27;45379;-64
2023/09/06 04:42:56;;;;;;;;;11.50;10.50;;;;;26.58;50.26;101213.75;4975387;28;45284;-66
2023/09/06 04:45:22;;;;;;;;;10.75;10.75;;;;;26.47;50.35;101210.75;4974157;27;45280;-66
2023/09/06 04:47:47;;;;;;;;;11.50;10.00;;;;;26.54;50.40;101220.22;4973870;28;46374;-66
2023/09/06 04:50:13;;;;;;;;;10.75;10.75;;;;;26.60;50.16;101221.69;4974046;27;45418;-66
2023/09/06 04:52:52;;;;;;;;;10.75;9.50;;;;;26.61;50.11;101218.91;4983895;27;45457;-66
2023/09/06 04:55:25;;;;;;;;;8.75;8.75;;;;;26.50;50.41;101218.63;4974496;27;45371;-65
2023/09/06 04:57:53;;;;;;;;;13.50;10.75;;;;;26.47;50.64;101221.50;4982326;27;46322;-66
2023/09/06 05:00:30;;;;;;;;;11.00;11.00;;;;;26.48;50.70;101228.63;4980496;27;45295;-65
2023/09/06 05:02:57;;;;;;;;;13.25;11.50;;;;;26.37;50.89;101223.00;4993763;27;45426;-66
2023/09/06 05:05:24;;;;;;;;;11.50;11.50;;;;;26.25;51.16;101211.13;4977620;28;45469;-65
2023/09/06 05:07:50;;;;;;;;;11.50;9.25;;;;;26.36;50.75;101231.97;4958264;28;48129;-64
2023/09/06 05:10:17;;;;;;;;;13.00;11.25;;;;;26.28;50.83;101221.69;4981061;27;45537;-67
2023/09/06 05:12:43;;;;;;;;;16.00;12.00;;;;;26.26;51.23;101228.09;4986630;27;45482;-65
2023/09/06 05:15:09;;;;;;;;;15.50;11.25;;;;;26.29;50.95;101228.78;4979713;27;45382;-66
2023/09/06 05:17:35;;;;;;;;;12.50;12.25;;;;;26.23;51.66;101221.06;4978994;27;45449;-65
2023/09/06 05:20:30;;;;;;;;;11.50;11.50;;;;;26.23;51.58;101216.56;4977071;27;45525;-63
2023/09/06 05:22:57;;;;;;;;;13.50;10.75;;;;;26.15;51.69;101223.31;4979442;28;45619;-67
2023/09/06 05:25:23;;;;;;;;;14.00;11.75;;;;;26.19;51.67;101223.03;4979139;28;45605;-67
2023/09/06 05:27:49;;;;;;;;;13.67;13.33;;;;;26.13;51.69;101227.91;4982668;28;46091;-68
2023/09/06 05:30:15;;;;;;;;;17.33;17.00;;;;;26.13;52.13;101223.41;4980377;27;45516;-66
2023/09/06 05:32:42;;;;;;;;;16.33;15.67;;;;;25.99;52.34;101226.00;4983197;27;45379;-63
2023/09/06 05:35:08;;;;;;;;;16.33;15.33;;;;;25.85;52.66;101220.47;4983162;27;45626;-68
2023/09/06 05:37:34;;;;;;;;;20.67;19.00;;;;;25.86;52.77;101232.94;4976228;27;46906;-64
2023/09/06 05:39:59;;;;;;;;;17.67;16.33;;;;;25.65;53.08;101210.81;4976440;27;45474;-63
2023/09/06 05:42:25;;;;;;;;;19.00;17.00;;;;;25.70;53.53;101232.88;4978735;27;45410;-64
2023/09/06 05:44:51;;;;;;;;;15.33;14.33;;;;;25.59;53.55;101225.41;4981029;27;45607;-64
2023/09/06 05:47:16;;;;;;;;;18.00;17.33;;;;;25.57;53.41;101235.34;4977376;27;46277;-65
2023/09/06 05:49:42;;;;;;;;;16.33;16.00;;;;;25.65;53.31;101238.53;4981928;27;45421;-65
2023/09/06 05:52:08;;;;;;;;;18.00;16.00;;;;;25.72;53.21;101245.28;4988706;27;45451;-63
2023/09/06 05:54:34;;;;;;;;;14.00;13.00;;;;;25.71;53.39;101243.53;4981328;27;45537;-65
2023/09/06 05:57:00;;;;;;;;;18.00;16.67;;;;;25.69;53.05;101241.88;4976354;28;45716;-64
2023/09/06 05:59:32;;;;;;;;;21.33;17.67;;;;;25.65;53.73;101238.53;4973967;28;45303;-66
2023/09/06 06:02:05;;;;;;;;;18.67;17.00;;;;;25.67;53.57;101233.91;4995139;27;45651;-64
2023/09/06 06:04:31;;;;;;;;;14.33;13.00;;;;;25.77;53.29;101237.00;4999027;27;45592;-65
2023/09/06 06:07:02;;;;;;;;;17.67;16.00;;;;;25.89;53.01;101244.41;5012272;27;46762;-68
2023/09/06 06:09:34;;;;;;;;;15.33;13.67;;;;;25.94;52.53;101233.44;4981785;27;45426;-64
2023/09/06 06:12:22;;;;;;;;;18.00;15.67;;;;;25.79;53.30;101227.91;4981100;27;45423;-65
2023/09/06 06:14:57;;;;;;;;;14.67;14.33;;;;;25.89;52.79;101238.16;4978011;28;45623;-64
2023/09/06 06:17:22;;;;;;;;;18.00;15.00;;;;;25.89;53.02;101251.56;5005911;27;47350;-64
2023/09/06 06:19:49;;;;;;;;;17.00;15.33;;;;;25.63;52.81;101205.53;4986582;27;45377;-64
2023/09/06 06:22:26;;;;;;;;;21.00;16.33;;;;;25.88;52.72;101257.91;4970863;27;45539;-63
2023/09/06 06:24:53;;;;;;;;;21.00;17.33;;;;;25.88;52.71;101260.59;4976414;27;45272;-65
2023/09/06 06:27:19;;;;;;;;;16.67;15.33;;;;;25.91;52.46;101260.41;4975811;27;45609;-64
2023/09/06 06:29:50;;;;;;;;;16.00;16.00;;;;;25.96;52.64;101255.66;4976550;28;45259;-65
2023/09/06 06:32:26;;;;;;;;;11.67;10.33;;;;;26.09;51.50;101251.38;4982029;27;45584;-65
2023/09/06 06:34:54;;;;;;;;;16.00;14.67;;;;;26.11;52.29;101259.34;4976860;28;45559;-66
2023/09/06 06:37:22;;;;;;;;;15.00;13.33;;;;;25.87;51.60;101221.28;4975760;27;45550;-65
2023/09/06 06:39:47;;;;;;;;;14.00;12.00;;;;;26.18;51.52;101272.34;4975260;27;45563;-64
2023/09/06 06:42:14;;;;;;;;;14.67;12.33;;;;;26.01;51.51;101241.06;4986127;27;45442;-66
2023/09/06 06:44:48;;;;;;;;;12.67;10.67;;;;;26.20;51.14;101270.44;4980098;27;45465;-64
2023/09/06 06:47:13;;;;;;;;;12.75;10.50;;;;;26.06;51.00;101256.06;4984902;27;45458;-65
2023/09/06 06:49:39;;;;;;;;;15.67;13.33;;;;;26.00;51.37;101271.50;4988235;27;45537;-66
2023/09/06 06:52:11;;;;;;;;;13.75;12.75;;;;;25.95;51.22;101267.34;4975619;27;45501;-67
2023/09/06 06:54:40;;;;;;;;;15.25;14.00;;;;;25.96;51.08;101286.06;4975374;27;45469;-67
2023/09/06 06:57:08;;;;;;;;;16.00;11.75;;;;;25.97;51.72;101278.88;4984785;28;47378;-66
2023/09/06 06:59:36;;;;;;;;;10.67;10.67;;;;;26.04;51.23;101277.59;4975783;27;45423;-64
2023/09/06 07:02:03;;;;;;;;;12.50;11.50;;;;;26.15;51.28;101288.63;4978311;27;45564;-65
2023/09/06 07:04:29;;;;;;;;;10.25;10.25;;;;;26.22;51.70;101290.03;4995123;27;45532;-64
2023/09/06 07:06:54;;;;;;;;;14.00;13.00;;;;;26.25;51.15;101280.06;4994212;27;45843;-66
2023/09/06 07:09:20;;;;;;;;;12.75;11.25;;;;;26.38;50.33;101279.28;4995099;27;46036;-67
2023/09/06 07:11:47;;;;;;;;;13.00;10.50;;;;;26.23;50.79;101259.53;4996136;27;45527;-66
2023/09/06 07:14:14;;;;;;;;;10.75;10.75;;;;;26.41;50.61;101280.91;4996431;27;45605;-66
2023/09/06 07:16:40;;;;;;;;;11.50;9.50;;;;;26.60;50.41;101279.00;4994979;27;46224;-65
2023/09/06 07:19:06;;;;;;;;;11.25;10.50;;;;;26.78;50.09;101295.88;4994688;27;45246;-65
2023/09/06 07:21:31;;;;;;;;;13.00;13.00;;;;;26.72;49.51;101250.56;4978105;27;45258;-65
2023/09/06 07:23:57;;;;;;;;;14.75;10.75;;;;;26.79;49.33;101251.94;4996155;27;45379;-64
2023/09/06 07:26:23;;;;;;;;;10.25;8.25;;;;;27.04;48.91;101272.00;4973677;28;46615;-66
2023/09/06 07:28:49;;;;;;;;;12.25;11.50;;;;;26.93;49.44;101275.28;4988377;27;45784;-66
2023/09/06 07:31:18;;;;;;;;;13.25;11.75;;;;;27.00;49.75;101297.31;4974180;28;45491;-65
2023/09/06 07:33:43;;;;;;;;;10.50;8.00;;;;;26.75;49.70;101236.06;4986094;27;45421;-66
2023/09/06 07:36:14;;;;;;;;;11.25;10.00;;;;;27.21;49.26;101282.66;4994118;27;45929;-64
2023/09/06 07:38:39;;;;;;;;;13.00;12.25;;;;;27.44;48.70;101283.97;4994933;27;45481;-64
2023/09/06 07:41:07;;;;;;;;;12.75;11.25;;;;;27.62;48.43;101286.50;4995477;27;45492;-66
2023/09/06 07:43:35;;;;;;;;;15.00;14.75;;;;;27.74;47.80;101295.66;4977435;28;45344;-65
2023/09/06 07:46:02;;;;;;;;;14.25;12.75;;;;;27.62;47.66;101275.72;4994158;27;46045;-65
2023/09/06 07:48:29;;;;;;;;;14.25;11.25;;;;;27.68;47.84;101272.69;4994680;27;45591;-65
2023/09/06 07:50:56;;;;;;;;;11.00;10.50;;;;;27.90;47.46;101300.06;4994708;27;45428;-65
2023/09/06 07:53:23;;;;;;;;;14.75;12.00;;;;;27.90;47.58;101302.75;4976796;27;45476;-64
2023/09/06 07:55:49;;;;;;;;;13.00;12.25;;;;;27.91;48.09;101300.91;4994466;27;45367;-68
2023/09/06 07:58:15;;;;;;;;;14.50;13.50;;;;;27.92;47.79;101302.63;4994323;27;45457;-67
2023/09/06 08:00:42;;;;;;;;;13.25;11.75;;;;;27.97;47.27;101278.13;4980306;27;45233;-66
2023/09/06 08:03:08;;;;;;;;;14.75;11.00;;;;;28.22;46.61;101301.69;4994470;27;45389;-66
2023/09/06 08:05:39;;;;;;;;;13.75;12.50;;;;;28.41;46.56;101307.63;4994874;27;45447;-66
2023/09/06 08:08:10;;;;;;;;;16.50;13.75;;;;;28.37;46.25;101280.97;4978190;28;45404;-67
2023/09/06 08:10:37;;;;;;;;;13.25;12.50;;;;;28.57;45.90;101309.34;4985812;27;45555;-68
2023/09/06 08:13:03;;;;;;;;;16.50;14.50;;;;;28.40;46.54;101308.56;4979246;28;45505;-66
2023/09/06 08:15:35;;;;;;;;;19.00;14.25;;;;;28.31;46.72;101310.03;4977701;27;46395;-67
2023/09/06 08:18:04;;;;;;;;;17.00;17.00;;;;;28.29;46.32;101314.66;4965125;28;45562;-66
2023/09/06 08:20:36;;;;;;;;;13.00;13.00;;;;;28.27;46.79;101286.09;4979964;28;45435;-68
2023/09/06 08:23:04;;;;;;;;;12.75;12.75;;;;;28.64;46.19;101302.59;4973778;27;45415;-66
2023/09/06 08:25:31;;;;;;;;;16.50;14.75;;;;;28.76;45.39;101309.91;4973228;28;45306;-67
2023/09/06 08:27:56;;;;;;;;;14.75;14.00;;;;;28.81;45.10;101296.09;4974407;28;45316;-68
2023/09/06 08:30:29;;;;;;;;;13.75;12.25;;;;;28.87;44.91;101299.25;4973371;28;45486;-66
2023/09/06 08:32:55;;;;;;;;;16.25;14.50;;;;;28.82;44.72;101304.09;4973384;28;45441;-67
2023/09/06 08:35:28;;;;;;;;;14.50;11.50;;;;;28.60;45.27;101290.31;4973705;28;45421;-64
2023/09/06 08:37:54;;;;;;;;;13.50;13.25;;;;;28.51;45.08;101275.59;4963901;28;45433;-66
2023/09/06 08:40:21;;;;;;;;;15.75;14.00;;;;;28.65;44.23;101305.19;4973901;28;45380;-67
2023/09/06 08:42:49;;;;;;;;;11.00;10.75;;;;;28.78;44.74;101323.25;4981263;28;45561;-67
2023/09/06 08:45:22;;;;;;;;;15.00;12.00;;;;;28.63;44.62;101290.09;4974490;27;45815;-67
2023/09/06 08:47:51;;;;;;;;;15.25;13.25;;;;;28.77;44.88;101303.53;4974152;28;45549;-67
2023/09/06 08:50:18;;;;;;;;;16.75;13.50;;;;;28.49;44.71;101262.22;4974089;27;45335;-68
2023/09/06 08:52:44;;;;;;;;;12.25;12.25;;;;;28.88;44.82;101313.63;4996753;27;45453;-67
2023/09/06 08:55:17;;;;;;;;;15.25;13.25;;;;;28.87;44.77;101318.13;5051467;27;45493;-68
2023/09/06 08:57:46;;;;;;;;;15.75;14.50;;;;;28.92;44.28;101307.03;5011379;27;45349;-65
2023/09/06 09:00:20;;;;;;;;;14.50;14.25;;;;;28.91;44.65;101303.50;4998078;27;45845;-67
2023/09/06 09:02:48;;;;;;;;;15.75;15.00;;;;;28.98;44.93;101305.78;4986714;27;46052;-68
2023/09/06 09:05:18;;;;;;;;;14.75;13.25;;;;;29.09;44.33;101301.44;4963295;27;46392;-67
2023/09/06 09:07:43;;;;;;;;;15.50;13.50;;;;;29.28;43.93;101317.25;4975095;28;45464;-69
2023/09/06 09:10:10;;;;;;;;;13.25;11.50;;;;;29.41;43.33;101316.41;4963501;27;45552;-68
2023/09/06 09:12:38;;;;;;;;;14.25;13.75;;;;;29.45;43.14;101312.50;4974968;27;45560;-67
2023/09/06 09:15:05;;;;;;;;;10.00;10.00;;;;;29.53;42.90;101311.03;4974526;27;46261;-65
2023/09/06 09:17:31;;;;;;;;;16.75;14.50;;;;;29.59;43.20;101304.38;4975725;28;45413;-68
2023/09/06 09:20:00;;;;;;;;;13.00;13.00;;;;;29.55;43.22;101292.03;4973147;28;45400;-67
2023/09/06 09:22:35;;;;;;;;;16.00;15.25;;;;;29.68;42.92;101297.47;4963362;28;45609;-67
2023/09/06 09:25:23;;;;;;;;;14.50;12.25;;;;;29.83;42.80;101311.72;4974719;27;46316;-67
2023/09/06 09:27:56;;;;;;;;;16.75;15.25;;;;;29.91;42.82;101298.56;4978509;27;45436;-67
2023/09/06 09:30:22;;;;;;;;;12.75;11.50;;;;;29.86;42.21;101280.00;4975274;27;45358;-66
2023/09/06 09:32:48;;;;;;;;;16.25;13.25;;;;;30.00;42.49;101300.63;4976468;27;45441;-67
2023/09/06 09:35:14;;;;;;;;;15.00;14.00;;;;;30.08;42.76;101300.06;4974462;27;45453;-67
2023/09/06 09:37:42;;;;;;;;;15.25;14.75;;;;;30.19;41.54;101289.38;4973831;28;45461;-68
2023/09/06 09:40:20;;;;;;;;;13.75;13.00;;;;;30.31;41.92;101304.72;4973267;27;45496;-67
2023/09/06 09:42:57;;;;;;;;;14.50;13.50;;;;;30.39;41.53;101285.22;4953561;28;45646;-67
2023/09/06 09:45:24;;;;;;;;;14.25;14.25;;;;;30.43;41.16;101263.28;4973173;28;45533;-66
2023/09/06 09:47:51;;;;;;;;;16.80;13.60;;;;;30.57;40.84;101273.09;4974238;28;45532;-67
2023/09/06 09:50:18;;;;;;;;;14.50;11.50;;;;;30.82;40.90;101312.69;4962560;28;45473;-67
2023/09/06 09:52:45;;;;;;;;;13.00;12.25;;;;;30.94;41.57;101300.09;4973240;28;45450;-67
2023/09/06 09:55:16;;;;;;;;;13.75;13.25;;;;;31.04;40.76;101303.00;4962299;28;45574;-65
2023/09/06 09:57:44;;;;;;;;;15.00;13.60;;;;;31.14;40.84;101309.44;4975289;27;45529;-68
2023/09/06 10:00:14;;;;;;;;;17.00;14.50;;;;;31.12;40.63;101288.88;4977214;27;45390;-67
2023/09/06 10:02:44;;;;;;;;;15.50;14.50;;;;;31.32;39.91;101298.16;4996203;27;45403;-66
2023/09/06 10:05:12;;;;;;;;;13.25;12.50;;;;;31.39;40.10;101294.00;4996787;27;46139;-66
2023/09/06 10:07:41;;;;;;;;;12.60;12.60;;;;;31.38;40.22;101281.47;4997241;27;45550;-64
2023/09/06 10:10:10;;;;;;;;;11.40;11.40;;;;;31.36;40.35;101245.53;4979567;28;45471;-65
2023/09/06 10:12:43;;;;;;;;;12.25;10.25;;;;;31.62;39.98;101276.03;4997320;27;45488;-67
2023/09/06 10:15:13;;;;;;;;;12.00;12.00;;;;;31.80;39.18;101293.53;4995501;27;46666;-65
2023/09/06 10:17:40;;;;;;;;;12.80;10.60;;;;;31.90;39.21;101289.09;4995130;27;45418;-64
2023/09/06 10:20:12;;;;;;;;;17.00;15.00;;;;;31.80;38.52;101266.44;4995865;27;45301;-65
2023/09/06 10:22:49;;;;;;;;;11.50;11.50;;;;;32.01;39.18;101279.28;4995488;27;45678;-66
2023/09/06 10:25:15;;;;;;;;;16.75;14.00;;;;;32.13;38.78;101282.84;4995378;27;45426;-66
2023/09/06 10:27:46;;;;;;;;;15.40;13.60;;;;;32.10;38.11;101278.53;4974125;28;45413;-65
2023/09/06 10:30:17;;;;;;;;;15.20;13.60;;;;;32.17;38.93;101273.50;4985764;27;45506;-65
2023/09/06 10:32:46;;;;;;;;;12.50;12.00;;;;;32.21;38.00;101272.28;4996045;27;45491;-65
2023/09/06 10:35:24;;;;;;;;;12.40;11.60;;;;;31.88;37.93;101200.81;4996362;27;45551;-65
2023/09/06 10:38:04;;;;;;;;;12.00;10.00;;;;;32.37;38.28;101242.94;4996643;27;45564;-66
2023/09/06 10:40:51;;;;;;;;;9.80;9.80;;;;;32.66;37.95;101264.09;4996280;27;45633;-68
2023/09/06 10:43:20;;;;;;;;;11.00;11.00;;;;;32.77;38.02;101263.19;4995698;27;45856;-69
2023/09/06 10:46:07;;;;;;;;;15.60;13.00;;;;;32.84;38.03;101262.56;4995179;27;46108;-65
2023/09/06 10:48:33;;;;;;;;;13.60;12.60;;;;;32.98;36.57;101253.22;4983491;27;45297;-67
2023/09/06 10:51:14;;;;;;;;;10.40;10.40;;;;;33.11;36.59;101255.81;4996108;27;45524;-67
2023/09/06 10:53:54;;;;;;;;;18.50;14.75;;;;;33.25;37.04;101255.50;4983377;27;45466;-66
2023/09/06 10:56:29;;;;;;;;;12.80;12.80;;;;;33.35;37.21;101261.84;4995154;27;45699;-66
2023/09/06 10:58:57;;;;;;;;;19.00;15.20;;;;;33.37;36.84;101237.28;4991910;27;45432;-71
2023/09/06 11:01:22;;;;;;;;;30.50;28.50;;;;;33.19;36.54;101198.16;4970062;27;45469;-66
2023/09/06 11:03:51;;;;;;;;;25.00;25.00;;;;;33.62;36.01;101246.03;4995150;27;45535;-66
2023/09/06 11:06:18;;;;;;;;;26.50;26.50;;;;;33.53;35.48;101229.53;4974066;27;46373;-67
2023/09/06 11:08:45;;;;;;;;;20.75;20.00;;;;;33.70;35.49;101255.22;4989378;27;45494;-68
2023/09/06 11:11:14;;;;;;;;;17.75;17.75;;;;;33.57;35.35;101247.28;4995061;27;45494;-67
2023/09/06 11:13:41;;;;;;;;;22.50;19.50;;;;;33.51;35.70;101246.94;4994860;27;45518;-68
2023/09/06 11:16:12;;;;;;;;;23.25;21.25;;;;;33.63;35.58;101240.47;4994780;27;45406;-67
2023/09/06 11:18:49;;;;;;;;;23.50;22.25;;;;;33.73;35.88;101248.66;4993373;27;45700;-67